createdAt,value
2023-04-11T00:01:14.809Z,99.90
2023-04-11T00:03:41.702Z,99.90
2023-04-11T00:06:08.621Z,99.90
2023-04-11T00:08:35.207Z,99.90
2023-04-11T00:11:01.817Z,99.90
2023-04-11T00:13:28.491Z,99.90
2023-04-11T00:15:55.728Z,99.90
2023-04-11T00:18:22.976Z,99.90
2023-04-11T00:20:49.670Z,99.90
2023-04-11T00:23:16.360Z,99.90
2023-04-11T00:25:43.117Z,99.90
2023-04-11T00:28:10.429Z,99.90
2023-04-11T00:30:37.143Z,99.90
2023-04-11T00:33:04.046Z,99.90
2023-04-11T00:35:34.497Z,99.90
2023-04-11T00:38:02.141Z,99.90
2023-04-11T00:40:28.868Z,99.90
2023-04-11T00:42:56.508Z,99.90
2023-04-11T00:45:23.233Z,99.90
2023-04-11T00:47:50.581Z,99.90
2023-04-11T00:50:18.298Z,99.90
2023-04-11T00:52:49.529Z,99.90
2023-04-11T00:55:16.587Z,99.90
2023-04-11T00:57:44.571Z,99.90
2023-04-11T01:00:12.074Z,99.90
2023-04-11T01:02:42.984Z,99.90
2023-04-11T01:05:11.231Z,99.90
2023-04-11T01:07:39.198Z,99.90
2023-04-11T01:10:06.869Z,99.90
2023-04-11T01:12:34.835Z,99.90
2023-04-11T01:15:01.746Z,99.90
2023-04-11T01:17:28.726Z,99.90
2023-04-11T01:19:55.441Z,99.90
2023-04-11T01:22:23.134Z,99.90
2023-04-11T01:24:50.576Z,99.90
2023-04-11T01:27:17.488Z,99.90
2023-04-11T01:29:44.103Z,99.90
2023-04-11T01:32:10.717Z,99.90
2023-04-11T01:34:40.914Z,99.90
2023-04-11T01:37:07.961Z,99.90
2023-04-11T01:39:34.603Z,99.90
2023-04-11T01:42:03.458Z,99.90
2023-04-11T01:44:32.077Z,99.90
2023-04-11T01:46:59.225Z,99.90
2023-04-11T01:49:26.330Z,99.90
2023-04-11T01:51:53.029Z,99.90
2023-04-11T01:54:19.686Z,99.90
2023-04-11T01:56:46.767Z,99.90
2023-04-11T01:59:13.442Z,99.90
2023-04-11T02:01:43.211Z,99.90
2023-04-11T02:04:10.511Z,99.90
2023-04-11T02:06:38.531Z,99.90
2023-04-11T02:09:05.111Z,99.90
2023-04-11T02:11:31.748Z,99.90
2023-04-11T02:13:58.344Z,99.90
2023-04-11T02:16:25.720Z,99.90
2023-04-11T02:18:52.961Z,99.90
2023-04-11T02:21:19.545Z,99.90
2023-04-11T02:23:46.123Z,99.90
2023-04-11T02:26:12.737Z,99.90
2023-04-11T02:28:39.352Z,99.90
2023-04-11T02:31:06.332Z,99.90
2023-04-11T02:33:32.930Z,99.90
2023-04-11T02:35:59.589Z,99.90
2023-04-11T02:38:26.446Z,99.90
2023-04-11T02:40:53.012Z,99.90
2023-04-11T02:43:19.610Z,99.90
2023-04-11T02:45:46.707Z,99.90
2023-04-11T02:48:13.827Z,99.90
2023-04-11T02:50:40.832Z,99.90
2023-04-11T02:53:07.693Z,99.90
2023-04-11T02:55:34.882Z,99.90
2023-04-11T02:58:01.600Z,99.90
2023-04-11T03:00:29.148Z,99.90
2023-04-11T03:02:56.731Z,99.90
2023-04-11T03:05:23.508Z,99.90
2023-04-11T03:07:50.229Z,99.90
2023-04-11T03:10:16.870Z,99.90
2023-04-11T03:12:43.461Z,99.90
2023-04-11T03:15:10.549Z,99.90
2023-04-11T03:17:37.307Z,99.90
2023-04-11T03:20:07.080Z,99.90
2023-04-11T03:22:33.743Z,99.90
2023-04-11T03:25:00.506Z,99.90
2023-04-11T03:27:27.289Z,99.90
2023-04-11T03:29:53.953Z,99.90
2023-04-11T03:32:20.605Z,99.90
2023-04-11T03:34:47.177Z,99.90
2023-04-11T03:37:13.751Z,99.90
2023-04-11T03:39:40.354Z,99.90
2023-04-11T03:42:06.995Z,99.90
2023-04-11T03:44:33.610Z,99.90
2023-04-11T03:47:00.269Z,99.90
2023-04-11T03:49:26.895Z,99.90
2023-04-11T03:51:53.467Z,99.90
2023-04-11T03:54:20.378Z,99.90
2023-04-11T03:56:46.947Z,99.90
2023-04-11T03:59:13.608Z,99.90
2023-04-11T04:01:40.328Z,99.90
2023-04-11T04:04:07.604Z,99.90
2023-04-11T04:06:34.400Z,99.90
2023-04-11T04:09:01.011Z,99.90
2023-04-11T04:11:27.623Z,99.90
2023-04-11T04:13:55.444Z,99.90
2023-04-11T04:16:22.456Z,99.90
2023-04-11T04:18:49.202Z,99.90
2023-04-11T04:21:16.586Z,99.90
2023-04-11T04:23:47.271Z,99.90
2023-04-11T04:26:16.203Z,99.90
2023-04-11T04:28:46.461Z,99.90
2023-04-11T04:31:15.370Z,99.90
2023-04-11T04:33:42.827Z,99.90
2023-04-11T04:36:12.240Z,99.90
2023-04-11T04:38:42.072Z,99.90
2023-04-11T04:41:14.833Z,99.90
2023-04-11T04:43:42.529Z,99.90
2023-04-11T04:46:10.822Z,99.90
2023-04-11T04:48:37.539Z,99.90
2023-04-11T04:51:05.498Z,99.90
2023-04-11T04:53:34.590Z,99.90
2023-04-11T04:56:02.133Z,99.90
2023-04-11T04:58:28.781Z,99.90
2023-04-11T05:00:55.926Z,99.90
2023-04-11T05:03:23.364Z,99.90
2023-04-11T05:05:50.474Z,99.90
2023-04-11T05:08:19.488Z,99.90
2023-04-11T05:10:46.132Z,99.90
2023-04-11T05:13:12.745Z,99.90
2023-04-11T05:15:39.351Z,99.90
2023-04-11T05:18:06.174Z,99.90
2023-04-11T05:20:33.230Z,99.90
2023-04-11T05:22:59.804Z,99.90
2023-04-11T05:25:27.025Z,99.90
2023-04-11T05:27:53.699Z,99.90
2023-04-11T05:30:20.463Z,99.90
2023-04-11T05:32:47.626Z,99.90
2023-04-11T05:35:14.391Z,99.90
2023-04-11T05:37:42.897Z,99.90
2023-04-11T05:40:09.947Z,99.90
2023-04-11T05:42:36.600Z,99.90
2023-04-11T05:45:03.252Z,99.90
2023-04-11T05:47:29.878Z,99.90
2023-04-11T05:49:56.482Z,99.90
2023-04-11T05:52:23.213Z,99.90
2023-04-11T05:54:49.856Z,99.90
2023-04-11T05:57:17.446Z,99.90
2023-04-11T05:59:44.116Z,99.90
2023-04-11T06:02:10.871Z,99.90
2023-04-11T06:04:37.981Z,99.90
2023-04-11T06:07:04.839Z,99.90
2023-04-11T06:09:33.463Z,99.90
2023-04-11T06:12:01.342Z,99.90
2023-04-11T06:14:27.914Z,99.90
2023-04-11T06:16:54.552Z,99.90
2023-04-11T06:19:21.179Z,99.90
2023-04-11T06:21:47.780Z,99.90
2023-04-11T06:24:18.411Z,99.90
2023-04-11T06:26:45.453Z,99.90
2023-04-11T06:29:12.054Z,99.90
2023-04-11T06:31:40.249Z,99.90
2023-04-11T06:34:06.872Z,99.90
2023-04-11T06:36:33.466Z,99.90
2023-04-11T06:39:00.200Z,99.90
2023-04-11T06:41:26.782Z,99.90
2023-04-11T06:43:53.374Z,99.90
2023-04-11T06:46:19.977Z,99.90
2023-04-11T06:48:47.703Z,99.90
2023-04-11T06:51:14.281Z,99.90
2023-04-11T06:53:41.003Z,99.90
2023-04-11T06:56:08.287Z,99.90
2023-04-11T06:58:34.934Z,99.90
2023-04-11T07:01:01.570Z,99.90
2023-04-11T07:03:28.324Z,99.90
2023-04-11T07:05:55.118Z,99.90
2023-04-11T07:08:21.718Z,99.90
2023-04-11T07:10:48.275Z,99.90
2023-04-11T07:13:15.339Z,99.90
2023-04-11T07:15:41.944Z,99.90
2023-04-11T07:18:08.641Z,99.90
2023-04-11T07:20:36.016Z,99.90
2023-04-11T07:23:03.305Z,99.90
2023-04-11T07:25:36.769Z,99.90
2023-04-11T07:28:07.078Z,99.90
2023-04-11T07:30:34.980Z,99.90
2023-04-11T07:33:02.097Z,99.90
2023-04-11T07:35:29.032Z,99.90
2023-04-11T07:37:57.393Z,99.90
2023-04-11T07:40:24.229Z,99.90
2023-04-11T07:42:50.844Z,99.90
2023-04-11T07:45:17.495Z,99.90
2023-04-11T07:47:44.152Z,99.90
2023-04-11T07:50:11.234Z,99.90
2023-04-11T07:52:37.821Z,99.90
2023-04-11T07:55:04.975Z,99.90
2023-04-11T07:57:31.757Z,99.90
2023-04-11T08:00:01.730Z,99.90
2023-04-11T08:02:28.538Z,99.90
2023-04-11T08:04:55.541Z,99.90
2023-04-11T08:07:22.213Z,99.90
2023-04-11T08:09:48.777Z,99.90
2023-04-11T08:12:16.528Z,99.90
2023-04-11T08:14:43.134Z,99.90
2023-04-11T08:17:21.061Z,99.90
2023-04-11T08:19:54.109Z,99.90
2023-04-11T08:22:20.734Z,99.90
2023-04-11T08:24:47.322Z,99.90
2023-04-11T08:27:13.936Z,99.90
2023-04-11T08:29:40.582Z,99.90
2023-04-11T08:32:07.178Z,99.90
2023-04-11T08:34:33.952Z,99.90
2023-04-11T08:37:00.689Z,99.90
2023-04-11T08:39:27.297Z,99.90
2023-04-11T08:41:53.941Z,99.90
2023-04-11T08:44:21.195Z,99.90
2023-04-11T08:46:48.182Z,99.90
2023-04-11T08:49:14.851Z,99.90
2023-04-11T08:51:43.401Z,99.90
2023-04-11T08:54:10.397Z,99.90
2023-04-11T08:56:38.132Z,99.90
2023-04-11T08:59:04.713Z,99.90
2023-04-11T09:01:33.160Z,99.90
2023-04-11T09:04:01.252Z,99.90
2023-04-11T09:06:32.357Z,99.90
2023-04-11T09:08:59.880Z,99.90
2023-04-11T09:11:27.305Z,99.90
2023-04-11T09:14:08.190Z,99.90
2023-04-11T09:16:35.334Z,99.90
2023-04-11T09:19:02.127Z,99.90
2023-04-11T09:21:31.071Z,99.90
2023-04-11T09:24:17.738Z,99.90
2023-04-11T09:26:44.578Z,99.90
2023-04-11T09:29:11.361Z,99.90
2023-04-11T09:31:42.436Z,99.90
2023-04-11T09:34:09.414Z,99.90
2023-04-11T09:36:35.998Z,99.90
2023-04-11T09:39:18.953Z,99.90
2023-04-11T09:41:46.238Z,99.90
2023-04-11T09:44:13.271Z,99.90
2023-04-11T09:46:59.141Z,99.90
2023-04-11T09:49:26.062Z,99.90
2023-04-11T09:51:52.890Z,99.90
2023-04-11T09:54:22.706Z,99.90
2023-04-11T09:56:50.174Z,99.90
2023-04-11T09:59:17.249Z,99.90
2023-04-11T10:01:44.241Z,99.90
2023-04-11T10:04:11.398Z,99.90
2023-04-11T10:07:02.005Z,99.90
2023-04-11T10:09:29.727Z,99.90
2023-04-11T10:11:56.770Z,99.90
2023-04-11T10:14:38.381Z,99.90
2023-04-11T10:17:21.320Z,99.90
2023-04-11T10:19:51.510Z,99.90
2023-04-11T10:22:59.823Z,99.90
2023-04-11T10:25:27.027Z,99.90
2023-04-11T10:28:06.354Z,99.90
2023-04-11T10:30:42.136Z,99.90
2023-04-11T10:33:19.623Z,99.90
2023-04-11T10:36:05.816Z,99.90
2023-04-11T10:38:41.754Z,99.90
2023-04-11T10:41:34.679Z,99.90
2023-04-11T10:44:20.535Z,99.90
2023-04-11T10:46:56.154Z,99.90
2023-04-11T10:49:40.293Z,99.90
2023-04-11T10:52:21.894Z,99.90
2023-04-11T10:54:53.626Z,99.90
2023-04-11T10:57:21.446Z,99.90
2023-04-11T10:59:50.853Z,99.90
2023-04-11T11:02:19.421Z,99.90
2023-04-11T11:04:47.257Z,99.90
2023-04-11T11:07:17.872Z,99.90
2023-04-11T11:09:49.267Z,99.90
2023-04-11T11:12:17.126Z,99.90
2023-04-11T11:14:45.922Z,99.90
2023-04-11T11:17:14.275Z,99.90
2023-04-11T11:19:45.216Z,99.90
2023-04-11T11:22:25.297Z,99.90
2023-04-11T11:24:52.430Z,99.90
2023-04-11T11:27:22.383Z,99.90
2023-04-11T11:29:49.319Z,99.90
2023-04-11T11:32:26.249Z,99.90
2023-04-11T11:34:53.301Z,99.90
2023-04-11T11:37:21.245Z,99.90
2023-04-11T11:39:49.057Z,99.90
2023-04-11T11:42:15.925Z,99.90
2023-04-11T11:44:42.743Z,99.90
2023-04-11T11:47:17.617Z,99.90
2023-04-11T11:49:46.391Z,99.90
2023-04-11T11:52:30.864Z,99.90
2023-04-11T11:54:57.506Z,99.90
2023-04-11T11:57:24.153Z,99.90
2023-04-11T11:59:58.240Z,99.90
2023-04-11T12:02:26.598Z,99.90
2023-04-11T12:05:00.791Z,99.90
2023-04-11T12:07:32.738Z,99.90
2023-04-11T12:10:06.189Z,99.90
2023-04-11T12:12:37.384Z,99.90
2023-04-11T12:15:10.366Z,99.90
2023-04-11T12:17:38.016Z,99.90
2023-04-11T12:20:08.640Z,99.90
2023-04-11T12:22:35.765Z,99.90
2023-04-11T12:25:12.235Z,99.90
2023-04-11T12:27:41.604Z,99.90
2023-04-11T12:30:09.757Z,99.90
2023-04-11T12:32:36.665Z,99.90
2023-04-11T12:35:05.741Z,99.90
2023-04-11T12:37:33.335Z,99.90
2023-04-11T12:40:00.477Z,99.90
2023-04-11T12:42:27.630Z,99.90
2023-04-11T12:44:54.598Z,99.90
2023-04-11T12:47:21.286Z,99.90
2023-04-11T12:49:47.892Z,99.90
2023-04-11T12:52:14.593Z,99.90
2023-04-11T12:54:41.316Z,99.90
2023-04-11T12:57:07.983Z,99.90
2023-04-11T12:59:34.833Z,99.90
2023-04-11T13:02:01.736Z,99.90
2023-04-11T13:04:28.729Z,99.90
2023-04-11T13:07:00.693Z,99.90
2023-04-11T13:09:34.222Z,99.90
2023-04-11T13:12:03.717Z,99.90
2023-04-11T13:14:30.616Z,99.90
2023-04-11T13:16:57.404Z,99.90
2023-04-11T13:19:24.269Z,99.90
2023-04-11T13:21:50.998Z,99.90
2023-04-11T13:24:17.643Z,99.90
2023-04-11T13:26:44.933Z,99.90
2023-04-11T13:29:14.591Z,99.90
2023-04-11T13:31:41.310Z,99.90
2023-04-11T13:34:07.940Z,99.90
2023-04-11T13:36:35.415Z,99.90
2023-04-11T13:39:02.252Z,99.90
2023-04-11T13:41:28.857Z,99.90
2023-04-11T13:43:55.452Z,99.90
2023-04-11T13:46:22.076Z,99.90
2023-04-11T13:48:48.775Z,99.90
2023-04-11T13:51:15.490Z,99.90
2023-04-11T13:53:42.097Z,99.90
2023-04-11T13:56:08.839Z,99.90
2023-04-11T13:58:35.476Z,99.90
2023-04-11T14:01:02.253Z,99.90
2023-04-11T14:03:33.469Z,99.90
2023-04-11T14:06:01.162Z,99.90
2023-04-11T14:08:28.678Z,98.40
2023-04-11T14:10:55.533Z,99.90
2023-04-11T14:13:22.168Z,99.90
2023-04-11T14:15:52.189Z,99.60
2023-04-11T14:18:27.873Z,99.90
2023-04-11T14:20:56.551Z,99.90
2023-04-11T14:23:23.244Z,99.90
2023-04-11T14:25:50.597Z,99.90
2023-04-11T14:28:18.196Z,99.90
2023-04-11T14:30:44.964Z,99.90
2023-04-11T14:33:11.749Z,99.90
2023-04-11T14:35:38.382Z,99.90
2023-04-11T14:38:05.555Z,99.90
2023-04-11T14:40:32.167Z,99.90
2023-04-11T14:42:58.834Z,99.90
2023-04-11T14:45:25.668Z,99.90
2023-04-11T14:47:52.398Z,99.90
2023-04-11T14:50:19.225Z,99.90
2023-04-11T14:52:48.076Z,99.90
2023-04-11T14:55:14.689Z,99.90
2023-04-11T14:57:55.422Z,99.90
2023-04-11T15:00:24.624Z,99.90
2023-04-11T15:02:55.028Z,99.90
2023-04-11T15:05:23.086Z,99.90
2023-04-11T15:07:52.003Z,99.90
2023-04-11T15:10:21.494Z,99.90
2023-04-11T15:12:48.370Z,99.90
2023-04-11T15:15:15.631Z,99.90
2023-04-11T15:17:45.041Z,99.90
2023-04-11T15:20:12.337Z,99.90
2023-04-11T15:22:41.284Z,99.90
2023-04-11T15:25:10.475Z,99.90
2023-04-11T15:27:37.187Z,99.90
2023-04-11T15:30:04.772Z,98.40
2023-04-11T15:32:31.708Z,99.10
2023-04-11T15:34:59.113Z,99.10
2023-04-11T15:37:26.316Z,99.10
2023-04-11T15:39:53.084Z,99.90
2023-04-11T15:42:19.650Z,99.40
2023-04-11T15:44:46.347Z,98.90
2023-04-11T15:47:13.129Z,99.30
2023-04-11T15:49:39.838Z,99.70
2023-04-11T15:52:06.974Z,98.50
2023-04-11T15:54:33.703Z,98.80
2023-04-11T15:57:01.678Z,98.40
2023-04-11T15:59:28.414Z,98.30
2023-04-11T16:01:55.148Z,98.80
2023-04-11T16:04:21.973Z,98.20
2023-04-11T16:06:49.030Z,98.50
2023-04-11T16:09:16.218Z,99.10
2023-04-11T16:11:42.948Z,99.40
2023-04-11T16:14:11.037Z,99.50
2023-04-11T16:16:37.834Z,99.90
2023-04-11T16:19:05.112Z,98.90
2023-04-11T16:21:31.792Z,98.50
2023-04-11T16:23:58.832Z,98.70
2023-04-11T16:26:26.828Z,99.70
2023-04-11T16:28:53.402Z,99.50
2023-04-11T16:31:24.286Z,99.90
2023-04-11T16:33:52.651Z,99.90
2023-04-11T16:36:20.503Z,99.90
2023-04-11T16:38:49.517Z,99.90
2023-04-11T16:41:19.638Z,99.90
2023-04-11T16:43:46.282Z,99.90
2023-04-11T16:46:14.124Z,99.90
2023-04-11T16:48:41.824Z,99.90
2023-04-11T16:51:10.881Z,99.90
2023-04-11T16:53:38.266Z,99.90
2023-04-11T16:56:05.404Z,99.90
2023-04-11T16:58:32.194Z,99.90
2023-04-11T17:01:00.309Z,99.90
2023-04-11T17:03:27.376Z,99.90
2023-04-11T17:05:54.160Z,99.90
2023-04-11T17:08:21.030Z,99.90
2023-04-11T17:10:47.652Z,99.90
2023-04-11T17:13:15.791Z,99.90
2023-04-11T17:15:42.387Z,99.90
2023-04-11T17:18:08.986Z,99.90
2023-04-11T17:20:35.980Z,99.90
2023-04-11T17:23:02.716Z,99.90
2023-04-11T17:25:29.977Z,99.90
2023-04-11T17:27:57.366Z,99.90
2023-04-11T17:30:24.032Z,99.90
2023-04-11T17:32:50.753Z,99.90
2023-04-11T17:35:17.497Z,99.90
2023-04-11T17:37:44.096Z,99.90
2023-04-11T17:40:12.590Z,99.90
2023-04-11T17:42:40.008Z,99.90
2023-04-11T17:45:16.535Z,99.90
2023-04-11T17:47:44.761Z,99.90
2023-04-11T17:50:13.271Z,99.90
2023-04-11T17:52:44.542Z,99.90
2023-04-11T17:55:12.944Z,99.90
2023-04-11T17:57:39.850Z,99.90
2023-04-11T18:00:24.055Z,99.90
2023-04-11T18:02:54.460Z,99.90
2023-04-11T18:05:24.856Z,99.90
2023-04-11T18:07:54.094Z,99.90
2023-04-11T18:10:21.787Z,99.90
2023-04-11T18:12:51.398Z,99.90
2023-04-11T18:15:18.582Z,99.90
2023-04-11T18:17:45.511Z,99.90
2023-04-11T18:20:13.187Z,99.90
2023-04-11T18:22:42.373Z,99.90
2023-04-11T18:25:09.478Z,99.90
2023-04-11T18:27:37.147Z,99.90
2023-04-11T18:30:07.264Z,99.90
2023-04-11T18:32:40.332Z,99.90
2023-04-11T18:35:11.277Z,99.90
2023-04-11T18:37:40.390Z,99.90
2023-04-11T18:40:11.769Z,99.90
2023-04-11T18:42:49.765Z,99.90
2023-04-11T18:45:20.134Z,99.90
2023-04-11T18:47:47.003Z,99.90
2023-04-11T18:50:14.742Z,99.90
2023-04-11T18:52:41.590Z,99.90
2023-04-11T18:55:09.929Z,99.90
2023-04-11T18:57:38.110Z,99.90
2023-04-11T19:00:13.213Z,99.90
2023-04-11T19:02:41.337Z,99.90
2023-04-11T19:05:13.370Z,99.90
2023-04-11T19:07:42.164Z,99.90
2023-04-11T19:10:10.162Z,99.90
2023-04-11T19:12:37.397Z,99.90
2023-04-11T19:15:07.569Z,99.90
2023-04-11T19:17:36.003Z,99.90
2023-04-11T19:20:06.674Z,99.90
2023-04-11T19:22:34.549Z,99.90
2023-04-11T19:25:01.277Z,99.90
2023-04-11T19:27:27.951Z,99.90
2023-04-11T19:29:54.605Z,99.90
2023-04-11T19:32:21.174Z,99.90
2023-04-11T19:34:49.398Z,99.90
2023-04-11T19:37:19.050Z,99.90
2023-04-11T19:39:45.735Z,99.90
2023-04-11T19:42:12.474Z,99.90
2023-04-11T19:44:39.660Z,99.90
2023-04-11T19:47:06.396Z,99.90
2023-04-11T19:49:33.038Z,99.90
2023-04-11T19:51:59.626Z,99.90
2023-04-11T19:54:26.191Z,99.90
2023-04-11T19:56:53.339Z,99.90
2023-04-11T19:59:20.247Z,99.90
2023-04-11T20:01:47.071Z,99.90
2023-04-11T20:04:15.598Z,99.90
2023-04-11T20:06:44.078Z,99.90
2023-04-11T20:09:11.543Z,99.90
2023-04-11T20:11:39.130Z,99.90
2023-04-11T20:14:06.622Z,99.90
2023-04-11T20:16:33.518Z,99.90
2023-04-11T20:19:01.794Z,99.90
2023-04-11T20:21:28.466Z,99.90
2023-04-11T20:23:55.233Z,99.90
2023-04-11T20:26:22.369Z,99.90
2023-04-11T20:28:50.253Z,99.90
2023-04-11T20:31:16.958Z,99.90
2023-04-11T20:33:44.148Z,99.90
2023-04-11T20:36:11.301Z,99.90
2023-04-11T20:38:37.988Z,99.90
2023-04-11T20:41:05.575Z,99.90
2023-04-11T20:43:32.363Z,99.90
2023-04-11T20:45:59.034Z,99.90
2023-04-11T20:48:25.785Z,99.90
2023-04-11T20:50:55.635Z,99.90
2023-04-11T20:53:22.242Z,99.90
2023-04-11T20:55:48.928Z,99.90
2023-04-11T20:58:18.450Z,99.90
2023-04-11T21:00:45.349Z,99.90
2023-04-11T21:03:12.380Z,99.90
2023-04-11T21:05:43.944Z,99.90
2023-04-11T21:08:13.778Z,99.90
2023-04-11T21:10:40.645Z,99.90
2023-04-11T21:13:07.284Z,99.90
2023-04-11T21:15:34.533Z,99.90
2023-04-11T21:18:01.223Z,99.90
2023-04-11T21:20:27.886Z,99.90
2023-04-11T21:22:54.661Z,99.90
2023-04-11T21:25:21.897Z,99.90
2023-04-11T21:27:49.717Z,99.90
2023-04-11T21:30:16.343Z,99.90
2023-04-11T21:32:43.092Z,99.90
2023-04-11T21:35:11.208Z,99.90
2023-04-11T21:37:38.257Z,99.90
2023-04-11T21:40:05.494Z,99.90
2023-04-11T21:42:32.114Z,99.90
2023-04-11T21:44:58.727Z,99.90
2023-04-11T21:47:25.550Z,99.90
2023-04-11T21:49:52.298Z,99.90
2023-04-11T21:52:18.985Z,99.90
2023-04-11T21:54:46.879Z,99.90
2023-04-11T21:57:13.562Z,99.90
2023-04-11T21:59:40.263Z,99.90
2023-04-11T22:02:07.014Z,99.90
2023-04-11T22:04:47.564Z,99.90
2023-04-11T22:07:26.404Z,99.90
2023-04-11T22:09:59.600Z,99.90
2023-04-11T22:12:26.894Z,99.90
2023-04-11T22:14:56.584Z,99.90
2023-04-11T22:17:23.710Z,99.90
2023-04-11T22:19:50.312Z,99.90
2023-04-11T22:22:20.190Z,99.90
2023-04-11T22:24:46.815Z,99.90
2023-04-11T22:27:13.573Z,99.90
2023-04-11T22:29:41.223Z,99.90
2023-04-11T22:32:08.178Z,99.90
2023-04-11T22:34:35.002Z,99.90
2023-04-11T22:37:01.581Z,99.90
2023-04-11T22:39:28.183Z,99.90
2023-04-11T22:41:55.324Z,99.90
2023-04-11T22:44:21.941Z,99.90
2023-04-11T22:47:06.487Z,99.90
2023-04-11T22:49:40.568Z,99.90
2023-04-11T22:52:14.748Z,99.90
2023-04-11T22:54:42.544Z,99.90
2023-04-11T22:57:09.520Z,99.90
2023-04-11T22:59:36.726Z,99.90
2023-04-11T23:02:03.697Z,99.90
2023-04-11T23:04:32.078Z,99.90
2023-04-11T23:06:59.031Z,99.90
2023-04-11T23:09:26.164Z,99.90
2023-04-11T23:11:53.305Z,99.90
2023-04-11T23:14:22.044Z,99.90
2023-04-11T23:16:48.947Z,99.90
2023-04-11T23:19:17.048Z,99.90
2023-04-11T23:21:44.436Z,99.90
2023-04-11T23:24:11.083Z,99.90
2023-04-11T23:26:37.716Z,99.90
2023-04-11T23:29:04.626Z,99.90
2023-04-11T23:31:32.518Z,99.90
2023-04-11T23:34:00.344Z,99.90
2023-04-11T23:36:27.831Z,99.90
2023-04-11T23:38:54.536Z,99.90
2023-04-11T23:41:21.193Z,99.90
2023-04-11T23:43:47.825Z,99.90
2023-04-11T23:46:14.630Z,99.90
2023-04-11T23:48:41.420Z,99.90
2023-04-11T23:51:08.232Z,99.90
2023-04-11T23:53:34.912Z,99.90
2023-04-11T23:56:01.633Z,99.90
2023-04-11T23:58:28.249Z,99.90
